Spabunker 51 — ECNA — position and weather

sailwx.info

Track history (hours):
 
Tides and Currents Weather Stations Pressure Air Temp Water Temp Dewpoint Dewpoint Depression Visibility Wind Speed Wind Dir Waves Ship Positions

Spabunker 51

Last reported at 2015-Apr-19 17:25 UTC. Time now 2015-Apr-19 19:13 UTC.
Position N 36°08' W 005°26'.

Length 84 m; draft 5.8 m.

Type: Ship (hazmat cat A). MMSI: 224322240.

Date/timePositionNaut miles runAvg speedWind from/ knotsBaromVisibWave heightAir tempDewpointWater temp
2015-Apr-19 17:25N 36°08' W 005°26'0 0.0
2015-Apr-19 15:23N 36°08' W 005°26'0 0.3
2015-Apr-19 14:34N 36°08' W 005°26'0 0.3
2015-Apr-19 13:32N 36°09' W 005°26'0 0.0
2015-Apr-19 12:28N 36°09' W 005°26'0 0.0
2015-Apr-19 10:33N 36°09' W 005°26'0 0.0
2015-Apr-19 09:16N 36°09' W 005°26'0 0.0
2015-Apr-19 08:33N 36°09' W 005°26'0 0.0
2015-Apr-19 07:33N 36°09' W 005°26'0 0.0
2015-Apr-19 04:22N 36°09' W 005°26'0 0.0
2015-Apr-19 03:33N 36°09' W 005°26'0 0.0
2015-Apr-19 02:33N 36°09' W 005°26'0 0.0
2015-Apr-19 01:33N 36°09' W 005°26'0 0.0
2015-Apr-19 00:33N 36°09' W 005°26'0 0.0
2015-Apr-18 23:33N 36°09' W 005°26'0 0.0
2015-Apr-18 22:12N 36°09' W 005°26'0 0.0
2015-Apr-18 20:19N 36°09' W 005°26'0 0.0
2015-Apr-18 19:32N 36°09' W 005°26'0 0.0
2015-Apr-18 18:33N 36°09' W 005°26'0 0.0
2015-Apr-18 17:33N 36°09' W 005°26'0 0.0
2015-Apr-18 16:32N 36°09' W 005°26'0 0.0
2015-Apr-18 15:11N 36°09' W 005°26'0 0.0
2015-Apr-18 14:32N 36°09' W 005°26'0 0.0
2015-Apr-18 13:33N 36°09' W 005°26'2 2.5
2015-Apr-18 12:32N 36°11' W 005°24'3 0.4
2015-Apr-18 05:14N 36°09' W 005°26'0 0.0
2015-Apr-18 03:14N 36°09' W 005°26'0 0.0
2015-Apr-18 02:08N 36°09' W 005°26'0 0.0
2015-Apr-18 01:17N 36°09' W 005°26'0 0.0
2015-Apr-18 00:31N 36°09' W 005°26'0 0.0
2015-Apr-17 14:29N 36°09' W 005°26'2 1.6
2015-Apr-17 13:16N 36°10' W 005°24'0 0.1
2015-Apr-17 12:33N 36°10' W 005°24'0 0.1
2015-Apr-17 11:33N 36°10' W 005°24'0 0.0
2015-Apr-17 10:32N 36°10' W 005°24'0 0.1
2015-Apr-17 09:33N 36°10' W 005°24'0 0.1
2015-Apr-17 08:27N 36°10' W 005°24'0 0.1
2015-Apr-17 06:06N 36°10' W 005°24'1 1.2
2015-Apr-17 05:25N 36°11' W 005°24'0 0.0
2015-Apr-17 04:33N 36°11' W 005°24'0 0.0
2015-Apr-17 03:20N 36°11' W 005°24'0 0.0
2015-Apr-17 01:19N 36°11' W 005°24'0 0.0
2015-Apr-17 00:30N 36°11' W 005°24'0 0.0
2015-Apr-16 23:21N 36°11' W 005°24'0 0.0
2015-Apr-16 21:33N 36°11' W 005°24'3 2.5
2015-Apr-16 20:29N 36°08' W 005°25'2 1.2
2015-Apr-16 18:29N 36°06' W 005°25'0 0.0
2015-Apr-16 17:33N 36°06' W 005°25'0 0.2
2015-Apr-16 16:33N 36°06' W 005°25'4 3.4
2015-Apr-16 15:15N 36°10' W 005°23'0 0.0
2015-Apr-16 14:24N 36°10' W 005°23'4 1.2
2015-Apr-16 10:33N 36°06' W 005°24'0 0.1
2015-Apr-16 09:33N 36°06' W 005°24'0 0.0
2015-Apr-16 08:32N 36°06' W 005°24'0 0.2
2015-Apr-16 07:23N 36°06' W 005°25'0 0.1
2015-Apr-16 06:32N 36°05' W 005°25'0 0.1
2015-Apr-16 05:33N 36°06' W 005°24'0 0.1
2015-Apr-16 04:33N 36°05' W 005°25'1 1.1
2015-Apr-16 03:33N 36°06' W 005°25'0 0.0
2015-Apr-16 02:31N 36°06' W 005°25'0 0.0
2015-Apr-16 01:33N 36°06' W 005°25'0 0.0
2015-Apr-16 00:27N 36°06' W 005°25'1 0.7
2015-Apr-15 23:33N 36°06' W 005°24'0 0.0
2015-Apr-15 22:33N 36°06' W 005°24'0 0.0
2015-Apr-15 21:33N 36°06' W 005°24'0 0.0
2015-Apr-15 19:33N 36°06' W 005°25'0 0.2
2015-Apr-15 18:33N 36°06' W 005°24'0 0.1
2015-Apr-15 17:33N 36°06' W 005°24'0 0.1
2015-Apr-15 16:33N 36°06' W 005°24'0 0.0
2015-Apr-15 15:33N 36°06' W 005°24'0 0.0
2015-Apr-15 14:33N 36°06' W 005°24'0 0.0
2015-Apr-15 13:33N 36°06' W 005°24'3 1.1
2015-Apr-15 11:04N 36°09' W 005°26'0 0.0
2015-Apr-15 10:22N 36°09' W 005°26'0 0.0
2015-Apr-15 07:31N 36°09' W 005°26'0 0.1
2015-Apr-15 03:31N 36°09' W 005°26'0 0.0
2015-Apr-15 02:13N 36°09' W 005°26'3 3.2
2015-Apr-15 01:25N 36°11' W 005°24'0 0.0
2015-Apr-15 00:32N 36°11' W 005°24'0 0.0
2015-Apr-14 23:31N 36°11' W 005°24'0 0.0
2015-Apr-14 21:23N 36°11' W 005°24'0 0.0
2015-Apr-14 19:06N 36°11' W 005°24'3 0.7
2015-Apr-14 15:21N 36°09' W 005°26'0 0.0
2015-Apr-14 13:21N 36°09' W 005°26'0 0.0
2015-Apr-14 11:33N 36°09' W 005°26'0 0.0
2015-Apr-14 10:31N 36°09' W 005°26'3 3.1
2015-Apr-14 09:33N 36°06' W 005°24'0 0.0
2015-Apr-14 08:28N 36°06' W 005°25'0 0.0
2015-Apr-14 07:18N 36°06' W 005°25'0 0.0
2015-Apr-14 06:33N 36°06' W 005°25'0 0.1
2015-Apr-14 05:33N 36°06' W 005°25'3 2.6
2015-Apr-14 04:24N 36°09' W 005°26'1 0.2
2015-Apr-14 01:30N 36°09' W 005°26'0 0.0
2015-Apr-14 00:33N 36°09' W 005°26'0 0.0
2015-Apr-13 21:27N 36°09' W 005°26'2 2.7
2015-Apr-13 20:33N 36°11' W 005°24'2 0.2
2015-Apr-13 06:12N 36°09' W 005°26'0 0.0
2015-Apr-13 03:09N 36°09' W 005°26'0 0.0
2015-Apr-13 02:33N 36°09' W 005°26'0 0.0
2015-Apr-13 01:26N 36°09' W 005°26'0 0.0
2015-Apr-13 00:27N 36°09' W 005°26'0 0.0
2015-Apr-12 23:31N 36°09' W 005°26'0 0.0
2015-Apr-12 21:14N 36°09' W 005°26'0 0.5
2015-Apr-12 20:33N 36°08' W 005°26'0 0.0
2015-Apr-12 18:19N 36°09' W 005°26'0 0.0
2015-Apr-12 16:04N 36°09' W 005°26'0 0.0
2015-Apr-12 15:33N 36°09' W 005°26'0 0.3
2015-Apr-12 14:33N 36°09' W 005°26'0 0.0
2015-Apr-12 13:33N 36°09' W 005°26'0 0.0
2015-Apr-12 12:33N 36°09' W 005°26'0 0.1
2015-Apr-12 09:31N 36°09' W 005°26'0 0.0
2015-Apr-12 08:17N 36°09' W 005°26'0 0.0
2015-Apr-12 07:29N 36°09' W 005°26'0 0.0
2015-Apr-12 06:32N 36°09' W 005°26'0 0.0
2015-Apr-12 05:33N 36°09' W 005°26'1 1.1
2015-Apr-12 04:33N 36°08' W 005°25'0 0.0
2015-Apr-12 03:33N 36°08' W 005°25'0 0.0
2015-Apr-12 02:33N 36°08' W 005°25'0 0.0
2015-Apr-12 01:31N 36°08' W 005°25'0 0.0
2015-Apr-12 00:33N 36°08' W 005°25'0 0.0
2015-Apr-11 23:29N 36°08' W 005°25'1 0.9
2015-Apr-11 22:32N 36°09' W 005°25'1 0.6
2015-Apr-11 21:33N 36°08' W 005°26'0 0.0
2015-Apr-11 20:33N 36°08' W 005°26'0 0.0
2015-Apr-11 19:32N 36°08' W 005°26'0 0.0
2015-Apr-11 16:19N 36°08' W 005°26'3 0.3
2015-Apr-11 06:17N 36°11' W 005°24'0 0.0
2015-Apr-11 05:33N 36°11' W 005°24'0 0.0
2015-Apr-11 04:33N 36°11' W 005°24'0 0.4
2015-Apr-11 03:27N 36°10' W 005°23'0 0.0
2015-Apr-11 02:33N 36°10' W 005°23'0 0.0
2015-Apr-10 22:28N 36°11' W 005°23'0 0.0
2015-Apr-10 21:29N 36°10' W 005°23'4 1.8
2015-Apr-10 19:19N 36°07' W 005°24'1 1.1
2015-Apr-10 18:33N 36°06' W 005°25'0 0.0
2015-Apr-10 17:15N 36°06' W 005°25'0 0.0
2015-Apr-10 16:25N 36°06' W 005°25'0 0.0
2015-Apr-10 15:25N 36°06' W 005°25'4 0.7
2015-Apr-10 09:04N 36°10' W 005°25'2 0.3
2015-Apr-10 01:33N 36°09' W 005°26'0 0.0
2015-Apr-09 23:32N 36°09' W 005°26'0 0.0
2015-Apr-09 22:29N 36°09' W 005°26'0 0.0
2015-Apr-09 21:33N 36°09' W 005°26'0 0.0
2015-Apr-09 20:30N 36°09' W 005°26'0 0.0
2015-Apr-09 19:29N 36°09' W 005°26'0 0.0
2015-Apr-09 17:28N 36°09' W 005°26'  
Track history (hours):
 
Tides and Currents Weather Stations Pressure Air Temp Water Temp Dewpoint Dewpoint Depression Visibility Wind Speed Wind Dir Waves Ship Positions

Spabunker 51

Last reported at 2015-Apr-19 17:25 UTC. Time now 2015-Apr-19 19:13 UTC.
Position N 36°08' W 005°26'.

Length 84 m; draft 5.8 m.

Type: Ship (hazmat cat A). MMSI: 224322240.

Date/timePositionNaut miles runAvg speedWind from/ knotsBaromVisibWave heightAir tempDewpointWater temp
2015-Apr-19 17:25N 36°08' W 005°26'0 0.0
2015-Apr-19 15:23N 36°08' W 005°26'0 0.3
2015-Apr-19 14:34N 36°08' W 005°26'0 0.3
2015-Apr-19 13:32N 36°09' W 005°26'0 0.0
2015-Apr-19 12:28N 36°09' W 005°26'0 0.0
2015-Apr-19 10:33N 36°09' W 005°26'0 0.0
2015-Apr-19 09:16N 36°09' W 005°26'0 0.0
2015-Apr-19 08:33N 36°09' W 005°26'0 0.0
2015-Apr-19 07:33N 36°09' W 005°26'0 0.0
2015-Apr-19 04:22N 36°09' W 005°26'0 0.0
2015-Apr-19 03:33N 36°09' W 005°26'0 0.0
2015-Apr-19 02:33N 36°09' W 005°26'0 0.0
2015-Apr-19 01:33N 36°09' W 005°26'0 0.0
2015-Apr-19 00:33N 36°09' W 005°26'0 0.0
2015-Apr-18 23:33N 36°09' W 005°26'0 0.0
2015-Apr-18 22:12N 36°09' W 005°26'0 0.0
2015-Apr-18 20:19N 36°09' W 005°26'0 0.0
2015-Apr-18 19:32N 36°09' W 005°26'0 0.0
2015-Apr-18 18:33N 36°09' W 005°26'0 0.0
2015-Apr-18 17:33N 36°09' W 005°26'0 0.0
2015-Apr-18 16:32N 36°09' W 005°26'0 0.0
2015-Apr-18 15:11N 36°09' W 005°26'0 0.0
2015-Apr-18 14:32N 36°09' W 005°26'0 0.0
2015-Apr-18 13:33N 36°09' W 005°26'2 2.5
2015-Apr-18 12:32N 36°11' W 005°24'3 0.4
2015-Apr-18 05:14N 36°09' W 005°26'0 0.0
2015-Apr-18 03:14N 36°09' W 005°26'0 0.0
2015-Apr-18 02:08N 36°09' W 005°26'0 0.0
2015-Apr-18 01:17N 36°09' W 005°26'0 0.0
2015-Apr-18 00:31N 36°09' W 005°26'0 0.0
2015-Apr-17 14:29N 36°09' W 005°26'2 1.6
2015-Apr-17 13:16N 36°10' W 005°24'0 0.1
2015-Apr-17 12:33N 36°10' W 005°24'0 0.1
2015-Apr-17 11:33N 36°10' W 005°24'0 0.0
2015-Apr-17 10:32N 36°10' W 005°24'0 0.1
2015-Apr-17 09:33N 36°10' W 005°24'0 0.1
2015-Apr-17 08:27N 36°10' W 005°24'0 0.1
2015-Apr-17 06:06N 36°10' W 005°24'1 1.2
2015-Apr-17 05:25N 36°11' W 005°24'0 0.0
2015-Apr-17 04:33N 36°11' W 005°24'0 0.0
2015-Apr-17 03:20N 36°11' W 005°24'0 0.0
2015-Apr-17 01:19N 36°11' W 005°24'0 0.0
2015-Apr-17 00:30N 36°11' W 005°24'0 0.0
2015-Apr-16 23:21N 36°11' W 005°24'0 0.0
2015-Apr-16 21:33N 36°11' W 005°24'3 2.5
2015-Apr-16 20:29N 36°08' W 005°25'2 1.2
2015-Apr-16 18:29N 36°06' W 005°25'0 0.0
2015-Apr-16 17:33N 36°06' W 005°25'0 0.2
2015-Apr-16 16:33N 36°06' W 005°25'4 3.4
2015-Apr-16 15:15N 36°10' W 005°23'0 0.0
2015-Apr-16 14:24N 36°10' W 005°23'4 1.2
2015-Apr-16 10:33N 36°06' W 005°24'0 0.1
2015-Apr-16 09:33N 36°06' W 005°24'0 0.0
2015-Apr-16 08:32N 36°06' W 005°24'0 0.2
2015-Apr-16 07:23N 36°06' W 005°25'0 0.1
2015-Apr-16 06:32N 36°05' W 005°25'0 0.1
2015-Apr-16 05:33N 36°06' W 005°24'0 0.1
2015-Apr-16 04:33N 36°05' W 005°25'1 1.1
2015-Apr-16 03:33N 36°06' W 005°25'0 0.0
2015-Apr-16 02:31N 36°06' W 005°25'0 0.0
2015-Apr-16 01:33N 36°06' W 005°25'0 0.0
2015-Apr-16 00:27N 36°06' W 005°25'1 0.7
2015-Apr-15 23:33N 36°06' W 005°24'0 0.0
2015-Apr-15 22:33N 36°06' W 005°24'0 0.0
2015-Apr-15 21:33N 36°06' W 005°24'0 0.0
2015-Apr-15 19:33N 36°06' W 005°25'0 0.2
2015-Apr-15 18:33N 36°06' W 005°24'0 0.1
2015-Apr-15 17:33N 36°06' W 005°24'0 0.1
2015-Apr-15 16:33N 36°06' W 005°24'0 0.0
2015-Apr-15 15:33N 36°06' W 005°24'0 0.0
2015-Apr-15 14:33N 36°06' W 005°24'0 0.0
2015-Apr-15 13:33N 36°06' W 005°24'3 1.1
2015-Apr-15 11:04N 36°09' W 005°26'0 0.0
2015-Apr-15 10:22N 36°09' W 005°26'0 0.0
2015-Apr-15 07:31N 36°09' W 005°26'0 0.1
2015-Apr-15 03:31N 36°09' W 005°26'0 0.0
2015-Apr-15 02:13N 36°09' W 005°26'3 3.2
2015-Apr-15 01:25N 36°11' W 005°24'0 0.0
2015-Apr-15 00:32N 36°11' W 005°24'0 0.0
2015-Apr-14 23:31N 36°11' W 005°24'0 0.0
2015-Apr-14 21:23N 36°11' W 005°24'0 0.0
2015-Apr-14 19:06N 36°11' W 005°24'3 0.7
2015-Apr-14 15:21N 36°09' W 005°26'0 0.0
2015-Apr-14 13:21N 36°09' W 005°26'0 0.0
2015-Apr-14 11:33N 36°09' W 005°26'0 0.0
2015-Apr-14 10:31N 36°09' W 005°26'3 3.1
2015-Apr-14 09:33N 36°06' W 005°24'0 0.0
2015-Apr-14 08:28N 36°06' W 005°25'0 0.0
2015-Apr-14 07:18N 36°06' W 005°25'0 0.0
2015-Apr-14 06:33N 36°06' W 005°25'0 0.1
2015-Apr-14 05:33N 36°06' W 005°25'3 2.6
2015-Apr-14 04:24N 36°09' W 005°26'1 0.2
2015-Apr-14 01:30N 36°09' W 005°26'0 0.0
2015-Apr-14 00:33N 36°09' W 005°26'0 0.0
2015-Apr-13 21:27N 36°09' W 005°26'2 2.7
2015-Apr-13 20:33N 36°11' W 005°24'2 0.2
2015-Apr-13 06:12N 36°09' W 005°26'0 0.0
2015-Apr-13 03:09N 36°09' W 005°26'0 0.0
2015-Apr-13 02:33N 36°09' W 005°26'0 0.0
2015-Apr-13 01:26N 36°09' W 005°26'0 0.0
2015-Apr-13 00:27N 36°09' W 005°26'0 0.0
2015-Apr-12 23:31N 36°09' W 005°26'0 0.0
2015-Apr-12 21:14N 36°09' W 005°26'0 0.5
2015-Apr-12 20:33N 36°08' W 005°26'0 0.0
2015-Apr-12 18:19N 36°09' W 005°26'0 0.0
2015-Apr-12 16:04N 36°09' W 005°26'0 0.0
2015-Apr-12 15:33N 36°09' W 005°26'0 0.3
2015-Apr-12 14:33N 36°09' W 005°26'0 0.0
2015-Apr-12 13:33N 36°09' W 005°26'0 0.0
2015-Apr-12 12:33N 36°09' W 005°26'0 0.1
2015-Apr-12 09:31N 36°09' W 005°26'0 0.0
2015-Apr-12 08:17N 36°09' W 005°26'0 0.0
2015-Apr-12 07:29N 36°09' W 005°26'0 0.0
2015-Apr-12 06:32N 36°09' W 005°26'0 0.0
2015-Apr-12 05:33N 36°09' W 005°26'1 1.1
2015-Apr-12 04:33N 36°08' W 005°25'0 0.0
2015-Apr-12 03:33N 36°08' W 005°25'0 0.0
2015-Apr-12 02:33N 36°08' W 005°25'0 0.0
2015-Apr-12 01:31N 36°08' W 005°25'0 0.0
2015-Apr-12 00:33N 36°08' W 005°25'0 0.0
2015-Apr-11 23:29N 36°08' W 005°25'1 0.9
2015-Apr-11 22:32N 36°09' W 005°25'1 0.6
2015-Apr-11 21:33N 36°08' W 005°26'0 0.0
2015-Apr-11 20:33N 36°08' W 005°26'0 0.0
2015-Apr-11 19:32N 36°08' W 005°26'0 0.0
2015-Apr-11 16:19N 36°08' W 005°26'3 0.3
2015-Apr-11 06:17N 36°11' W 005°24'0 0.0
2015-Apr-11 05:33N 36°11' W 005°24'0 0.0
2015-Apr-11 04:33N 36°11' W 005°24'0 0.4
2015-Apr-11 03:27N 36°10' W 005°23'0 0.0
2015-Apr-11 02:33N 36°10' W 005°23'0 0.0
2015-Apr-10 22:28N 36°11' W 005°23'0 0.0
2015-Apr-10 21:29N 36°10' W 005°23'4 1.8
2015-Apr-10 19:19N 36°07' W 005°24'1 1.1
2015-Apr-10 18:33N 36°06' W 005°25'0 0.0
2015-Apr-10 17:15N 36°06' W 005°25'0 0.0
2015-Apr-10 16:25N 36°06' W 005°25'0 0.0
2015-Apr-10 15:25N 36°06' W 005°25'4 0.7
2015-Apr-10 09:04N 36°10' W 005°25'2 0.3
2015-Apr-10 01:33N 36°09' W 005°26'0 0.0
2015-Apr-09 23:32N 36°09' W 005°26'0 0.0
2015-Apr-09 22:29N 36°09' W 005°26'0 0.0
2015-Apr-09 21:33N 36°09' W 005°26'0 0.0
2015-Apr-09 20:30N 36°09' W 005°26'0 0.0
2015-Apr-09 19:29N 36°09' W 005°26'0 0.0
2015-Apr-09 17:28N 36°09' W 005°26'  

Dump ship's entire track history